createdAt,value
2023-05-05T00:00:30.707Z,6.81
2023-05-05T00:03:23.871Z,6.77
2023-05-05T00:05:59.020Z,6.73
2023-05-05T00:08:35.221Z,6.70
2023-05-05T00:11:08.562Z,6.68
2023-05-05T00:13:37.551Z,6.65
2023-05-05T00:16:23.499Z,6.60
2023-05-05T00:18:50.296Z,6.55
2023-05-05T00:21:17.014Z,6.49
2023-05-05T00:23:43.586Z,6.45
2023-05-05T00:26:10.327Z,6.41
2023-05-05T00:28:37.776Z,6.36
2023-05-05T00:31:04.690Z,6.30
2023-05-05T00:33:31.431Z,6.25
2023-05-05T00:35:58.137Z,6.21
2023-05-05T00:38:24.731Z,6.17
2023-05-05T00:40:54.225Z,6.13
2023-05-05T00:43:23.233Z,6.11
2023-05-05T00:45:59.627Z,6.08
2023-05-05T00:48:27.873Z,6.07
2023-05-05T00:50:54.604Z,6.07
2023-05-05T00:53:21.655Z,6.07
2023-05-05T00:55:49.153Z,6.05
2023-05-05T00:58:16.984Z,6.04
2023-05-05T01:00:43.938Z,6.02
2023-05-05T01:03:14.564Z,5.99
2023-05-05T01:06:07.354Z,5.96
2023-05-05T01:09:17.071Z,5.91
2023-05-05T01:11:56.055Z,5.85
2023-05-05T01:14:36.326Z,5.81
2023-05-05T01:17:33.240Z,5.76
2023-05-05T01:20:14.972Z,5.70
2023-05-05T01:23:05.373Z,5.65
2023-05-05T01:25:50.152Z,5.58
2023-05-05T01:29:00.128Z,5.52
2023-05-05T01:32:05.956Z,5.44
2023-05-05T01:34:44.380Z,5.38
2023-05-05T01:37:21.780Z,5.32
2023-05-05T01:40:11.333Z,5.26
2023-05-05T01:42:41.966Z,5.20
2023-05-05T01:45:14.059Z,5.15
2023-05-05T01:47:42.119Z,5.11
2023-05-05T01:50:10.871Z,5.05
2023-05-05T01:52:39.432Z,5.00
2023-05-05T01:55:08.249Z,4.95
2023-05-05T01:57:38.489Z,4.90
2023-05-05T02:00:07.354Z,4.85
2023-05-05T02:02:44.720Z,4.80
2023-05-05T02:05:13.125Z,4.76
2023-05-05T02:07:40.155Z,4.72
2023-05-05T02:10:08.986Z,4.67
2023-05-05T02:12:36.975Z,4.63
2023-05-05T02:15:05.340Z,4.59
2023-05-05T02:17:32.747Z,4.55
2023-05-05T02:20:02.314Z,4.52
2023-05-05T02:22:28.939Z,4.48
2023-05-05T02:24:55.604Z,4.46
2023-05-05T02:27:24.044Z,4.43
2023-05-05T02:29:55.995Z,4.40
2023-05-05T02:33:15.660Z,4.36
2023-05-05T02:35:52.356Z,4.31
2023-05-05T02:38:27.184Z,4.28
2023-05-05T02:40:57.624Z,4.26
2023-05-05T02:43:26.777Z,4.24
2023-05-05T02:45:53.556Z,4.22
2023-05-05T02:48:20.606Z,4.20
2023-05-05T02:50:48.889Z,4.18
2023-05-05T02:53:36.196Z,4.15
2023-05-05T02:56:32.636Z,4.12
2023-05-05T02:59:09.405Z,4.08
2023-05-05T03:01:56.096Z,4.05
2023-05-05T03:04:28.690Z,4.03
2023-05-05T03:07:06.145Z,4.01
2023-05-05T03:09:39.252Z,3.98
2023-05-05T03:12:11.936Z,3.97
2023-05-05T03:14:51.316Z,3.96
2023-05-05T03:17:19.776Z,3.95
2023-05-05T03:19:48.982Z,3.95
2023-05-05T03:22:18.074Z,3.95
2023-05-05T03:24:51.134Z,3.95
2023-05-05T03:27:21.530Z,3.96
2023-05-05T03:29:51.309Z,3.97
2023-05-05T03:32:23.055Z,3.98
2023-05-05T03:34:50.284Z,4.00
2023-05-05T03:37:17.261Z,4.04
2023-05-05T03:39:44.017Z,4.09
2023-05-05T03:42:11.250Z,4.15
2023-05-05T03:44:40.732Z,4.24
2023-05-05T03:47:11.067Z,4.34
2023-05-05T03:49:38.442Z,4.47
2023-05-05T03:52:05.692Z,4.62
2023-05-05T03:54:32.550Z,4.76
2023-05-05T03:56:59.289Z,4.91
2023-05-05T03:59:26.276Z,5.05
2023-05-05T04:01:53.196Z,5.21
2023-05-05T04:04:20.900Z,5.36
2023-05-05T04:06:47.756Z,5.49
2023-05-05T04:09:17.771Z,5.63
2023-05-05T04:11:44.877Z,5.75
2023-05-05T04:14:11.897Z,5.87
2023-05-05T04:16:38.774Z,5.98
2023-05-05T04:19:05.612Z,6.08
2023-05-05T04:21:35.280Z,6.19
2023-05-05T04:24:02.888Z,6.30
2023-05-05T04:26:31.116Z,6.41
2023-05-05T04:29:01.150Z,6.53
2023-05-05T04:31:28.182Z,6.66
2023-05-05T04:33:54.884Z,6.78
2023-05-05T04:36:21.776Z,6.90
2023-05-05T04:38:49.402Z,7.02
2023-05-05T04:41:16.134Z,7.14
2023-05-05T04:43:43.131Z,7.26
2023-05-05T04:46:10.023Z,7.38
2023-05-05T04:48:37.918Z,7.50
2023-05-05T04:51:07.701Z,7.63
2023-05-05T04:53:37.876Z,7.75
2023-05-05T04:56:04.770Z,7.90
2023-05-05T04:58:32.087Z,8.07
2023-05-05T05:00:58.864Z,8.31
2023-05-05T05:03:29.048Z,8.59
2023-05-05T05:05:56.010Z,8.91
2023-05-05T05:08:23.433Z,9.24
2023-05-05T05:10:50.786Z,9.56
2023-05-05T05:13:37.791Z,9.91
2023-05-05T05:16:05.981Z,10.26
2023-05-05T05:18:33.171Z,10.55
2023-05-05T05:21:00.261Z,10.81
2023-05-05T05:23:27.324Z,11.04
2023-05-05T05:25:54.274Z,11.24
2023-05-05T05:28:21.432Z,11.40
2023-05-05T05:30:52.106Z,11.53
2023-05-05T05:33:21.597Z,11.61
2023-05-05T05:35:49.101Z,11.68
2023-05-05T05:38:17.386Z,11.75
2023-05-05T05:40:44.130Z,11.83
2023-05-05T05:43:10.789Z,11.91
2023-05-05T05:45:38.337Z,12.00
2023-05-05T05:48:05.709Z,12.08
2023-05-05T05:50:32.517Z,12.18
2023-05-05T05:52:59.582Z,12.27
2023-05-05T05:55:26.610Z,12.37
2023-05-05T05:57:53.493Z,12.50
2023-05-05T06:00:20.541Z,12.63
2023-05-05T06:02:51.122Z,12.75
2023-05-05T06:05:20.239Z,12.86
2023-05-05T06:07:47.660Z,12.95
2023-05-05T06:10:27.201Z,13.09
2023-05-05T06:12:59.930Z,13.66
2023-05-05T06:15:26.782Z,14.26
2023-05-05T06:17:54.089Z,14.64
2023-05-05T06:20:21.876Z,14.90
2023-05-05T06:22:48.877Z,15.14
2023-05-05T06:25:16.068Z,15.37
2023-05-05T06:27:42.703Z,15.60
2023-05-05T06:30:10.245Z,15.82
2023-05-05T06:32:37.219Z,16.02
2023-05-05T06:35:04.260Z,16.23
2023-05-05T06:37:31.005Z,16.45
2023-05-05T06:39:57.741Z,16.65
2023-05-05T06:42:24.434Z,16.87
2023-05-05T06:44:52.110Z,17.08
2023-05-05T06:47:19.339Z,17.28
2023-05-05T06:49:46.015Z,17.47
2023-05-05T06:52:12.794Z,17.67
2023-05-05T06:54:39.426Z,17.87
2023-05-05T06:57:06.421Z,18.05
2023-05-05T06:59:33.025Z,18.21
2023-05-05T07:01:59.855Z,18.38
2023-05-05T07:04:26.662Z,18.56
2023-05-05T07:06:54.531Z,18.73
2023-05-05T07:09:21.150Z,18.87
2023-05-05T07:11:47.709Z,19.00
2023-05-05T07:14:15.713Z,19.14
2023-05-05T07:16:42.378Z,19.27
2023-05-05T07:19:09.193Z,19.41
2023-05-05T07:21:35.983Z,19.52
2023-05-05T07:24:03.050Z,19.67
2023-05-05T07:26:29.819Z,19.81
2023-05-05T07:28:58.015Z,19.94
2023-05-05T07:31:25.739Z,20.07
2023-05-05T07:33:52.389Z,20.18
2023-05-05T07:36:19.796Z,20.28
2023-05-05T07:38:46.487Z,20.40
2023-05-05T07:41:13.230Z,20.52
2023-05-05T07:43:41.678Z,20.65
2023-05-05T07:46:09.813Z,20.79
2023-05-05T07:48:36.824Z,20.90
2023-05-05T07:51:03.484Z,21.02
2023-05-05T07:53:30.464Z,21.12
2023-05-05T07:55:57.047Z,21.23
2023-05-05T07:58:23.741Z,21.34
2023-05-05T08:00:50.702Z,21.44
2023-05-05T08:03:20.011Z,21.54
2023-05-05T08:05:46.799Z,21.62
2023-05-05T08:08:13.374Z,21.73
2023-05-05T08:10:39.952Z,21.81
2023-05-05T08:13:06.861Z,21.78
2023-05-05T08:15:33.629Z,21.74
2023-05-05T08:18:00.494Z,21.75
2023-05-05T08:20:28.796Z,21.80
2023-05-05T08:22:55.823Z,21.81
2023-05-05T08:25:22.857Z,21.81
2023-05-05T08:27:50.239Z,21.86
2023-05-05T08:30:20.233Z,21.95
2023-05-05T08:32:46.966Z,22.05
2023-05-05T08:35:13.835Z,22.13
2023-05-05T08:37:40.757Z,22.19
2023-05-05T08:40:10.909Z,22.25
2023-05-05T08:42:39.147Z,22.32
2023-05-05T08:45:08.683Z,22.40
2023-05-05T08:47:36.974Z,22.48
2023-05-05T08:50:07.478Z,22.57
2023-05-05T08:52:49.840Z,22.67
2023-05-05T08:55:26.023Z,22.77
2023-05-05T08:57:56.248Z,22.84
2023-05-05T09:00:25.872Z,22.92
2023-05-05T09:02:55.644Z,22.97
2023-05-05T09:05:23.468Z,22.93
2023-05-05T09:07:50.647Z,22.87
2023-05-05T09:10:20.302Z,22.84
2023-05-05T09:12:49.140Z,22.86
2023-05-05T09:15:18.496Z,22.86
2023-05-05T09:17:46.503Z,22.88
2023-05-05T09:20:14.408Z,22.97
2023-05-05T09:22:43.705Z,23.06
2023-05-05T09:25:15.698Z,23.18
2023-05-05T09:27:45.238Z,23.31
2023-05-05T09:30:16.002Z,23.38
2023-05-05T09:32:48.188Z,23.44
2023-05-05T09:35:16.129Z,23.43
2023-05-05T09:37:46.144Z,23.43
2023-05-05T09:40:14.575Z,23.44
2023-05-05T09:42:41.186Z,23.43
2023-05-05T09:45:16.765Z,23.45
2023-05-05T09:47:47.595Z,23.44
2023-05-05T09:50:18.031Z,23.49
2023-05-05T09:52:59.345Z,23.57
2023-05-05T09:55:26.518Z,23.67
2023-05-05T09:57:53.524Z,23.80
2023-05-05T10:00:21.301Z,23.93
2023-05-05T10:02:48.141Z,24.07
2023-05-05T10:05:16.838Z,24.14
2023-05-05T10:07:46.945Z,24.17
2023-05-05T10:10:16.493Z,24.22
2023-05-05T10:12:46.051Z,24.24
2023-05-05T10:15:15.121Z,24.20
2023-05-05T10:20:20.064Z,24.22
2023-05-05T10:22:52.214Z,24.24
2023-05-05T10:25:30.532Z,24.19
2023-05-05T10:28:02.248Z,24.04
2023-05-05T10:30:33.158Z,23.94
2023-05-05T10:33:31.751Z,23.87
2023-05-05T10:36:05.396Z,23.86
2023-05-05T10:38:35.566Z,23.91
2023-05-05T10:41:03.180Z,23.90
2023-05-05T10:43:31.443Z,23.93
2023-05-05T10:45:58.828Z,24.05
2023-05-05T10:48:35.455Z,24.18
2023-05-05T10:51:40.436Z,24.33
2023-05-05T10:54:19.276Z,24.49
2023-05-05T10:56:46.553Z,24.56
2023-05-05T10:59:40.384Z,24.57
2023-05-05T11:02:27.472Z,24.53
2023-05-05T11:05:17.155Z,24.54
2023-05-05T11:07:45.606Z,24.61
2023-05-05T11:10:14.896Z,24.66
2023-05-05T11:13:01.988Z,24.67
2023-05-05T11:15:28.901Z,24.77
2023-05-05T11:18:05.766Z,24.84
2023-05-05T11:20:36.994Z,24.86
2023-05-05T11:23:03.628Z,24.76
2023-05-05T11:25:40.201Z,24.66
2023-05-05T11:28:10.835Z,24.64
2023-05-05T11:30:56.019Z,24.65
2023-05-05T11:33:33.211Z,24.69
2023-05-05T11:36:02.815Z,24.71
2023-05-05T11:38:47.148Z,24.74
2023-05-05T11:41:26.864Z,24.83
2023-05-05T11:44:15.375Z,24.91
2023-05-05T11:46:51.240Z,25.00
2023-05-05T11:49:27.792Z,25.08
2023-05-05T11:52:07.552Z,25.09
2023-05-05T11:54:36.188Z,25.01
2023-05-05T11:57:05.003Z,24.93
2023-05-05T11:59:32.307Z,24.88
2023-05-05T12:01:59.609Z,24.79
2023-05-05T12:04:26.482Z,24.69
2023-05-05T12:06:54.721Z,24.60
2023-05-05T12:09:22.657Z,24.54
2023-05-05T12:11:51.167Z,24.49
2023-05-05T12:14:18.209Z,24.49
2023-05-05T12:16:57.169Z,24.51
2023-05-05T12:19:24.463Z,24.53
2023-05-05T12:21:53.620Z,24.53
2023-05-05T12:24:20.238Z,24.50
2023-05-05T12:26:47.255Z,24.45
2023-05-05T12:29:23.851Z,24.42
2023-05-05T12:31:51.115Z,24.44
2023-05-05T12:34:18.704Z,24.46
2023-05-05T12:36:46.017Z,24.41
2023-05-05T12:39:12.982Z,24.35
2023-05-05T12:41:39.607Z,24.34
2023-05-05T12:44:06.476Z,24.36
2023-05-05T12:46:46.830Z,24.34
2023-05-05T12:49:14.017Z,24.30
2023-05-05T12:51:55.976Z,24.26
2023-05-05T12:54:24.331Z,24.22
2023-05-05T12:56:51.117Z,24.11
2023-05-05T12:59:21.097Z,24.04
2023-05-05T13:01:55.891Z,23.99
2023-05-05T13:04:27.292Z,23.97
2023-05-05T13:07:12.443Z,23.91
2023-05-05T13:09:39.824Z,23.89
2023-05-05T13:12:08.016Z,23.90
2023-05-05T13:14:35.850Z,23.90
2023-05-05T13:17:05.429Z,23.91
2023-05-05T13:19:41.124Z,23.91
2023-05-05T13:22:12.254Z,23.89
2023-05-05T13:24:50.811Z,23.86
2023-05-05T13:27:19.870Z,23.72
2023-05-05T13:29:47.256Z,23.59
2023-05-05T13:32:14.077Z,23.50
2023-05-05T13:34:41.928Z,23.39
2023-05-05T13:37:08.949Z,23.31
2023-05-05T13:39:36.281Z,23.21
2023-05-05T13:42:03.041Z,23.13
2023-05-05T13:44:29.909Z,23.07
2023-05-05T13:46:57.225Z,23.03
2023-05-05T13:49:24.140Z,23.00
2023-05-05T13:51:50.683Z,22.95
2023-05-05T13:54:17.425Z,22.93
2023-05-05T13:56:44.019Z,22.89
2023-05-05T13:59:10.651Z,22.84
2023-05-05T14:01:37.931Z,22.80
2023-05-05T14:04:05.862Z,22.76
2023-05-05T14:06:33.462Z,22.70
2023-05-05T14:09:00.793Z,22.64
2023-05-05T14:11:27.510Z,22.60
2023-05-05T14:13:54.290Z,22.57
2023-05-05T14:16:21.187Z,22.54
2023-05-05T14:18:48.061Z,22.51
2023-05-05T14:21:14.797Z,22.46
2023-05-05T14:23:41.432Z,22.41
2023-05-05T14:26:08.235Z,22.35
2023-05-05T14:28:34.783Z,22.29
2023-05-05T14:31:01.589Z,22.20
2023-05-05T14:33:28.392Z,22.14
2023-05-05T14:35:55.033Z,22.08
2023-05-05T14:38:22.034Z,22.00
2023-05-05T14:40:48.792Z,21.93
2023-05-05T14:43:15.512Z,21.83
2023-05-05T14:45:43.538Z,21.76
2023-05-05T14:48:10.250Z,21.70
2023-05-05T14:50:37.935Z,21.62
2023-05-05T14:53:04.761Z,21.55
2023-05-05T14:55:32.577Z,21.49
2023-05-05T14:57:59.213Z,21.43
2023-05-05T15:00:26.196Z,21.36
2023-05-05T15:02:56.126Z,21.30
2023-05-05T15:05:22.847Z,21.24
2023-05-05T15:07:49.867Z,21.19
2023-05-05T15:10:18.173Z,21.11
2023-05-05T15:12:45.762Z,21.05
2023-05-05T15:15:14.130Z,21.02
2023-05-05T15:17:41.335Z,20.99
2023-05-05T15:20:08.714Z,20.97
2023-05-05T15:22:35.764Z,20.95
2023-05-05T15:25:02.869Z,20.93
2023-05-05T15:27:31.005Z,20.90
2023-05-05T15:29:57.939Z,20.88
2023-05-05T15:32:24.752Z,20.85
2023-05-05T15:34:51.563Z,20.82
2023-05-05T15:37:18.255Z,20.78
2023-05-05T15:39:47.739Z,20.73
2023-05-05T15:42:14.370Z,20.68
2023-05-05T15:44:40.904Z,20.61
2023-05-05T15:47:08.479Z,20.54
2023-05-05T15:49:38.171Z,20.48
2023-05-05T15:52:04.796Z,20.40
2023-05-05T15:54:31.372Z,20.32
2023-05-05T15:56:58.015Z,20.24
2023-05-05T15:59:25.352Z,20.16
2023-05-05T16:01:52.319Z,20.09
2023-05-05T16:04:18.862Z,20.02
2023-05-05T16:06:45.517Z,19.95
2023-05-05T16:09:12.538Z,19.87
2023-05-05T16:11:39.280Z,19.79
2023-05-05T16:14:06.020Z,19.70
2023-05-05T16:16:32.894Z,19.60
2023-05-05T16:18:59.581Z,19.51
2023-05-05T16:21:26.958Z,19.42
2023-05-05T16:23:53.899Z,19.33
2023-05-05T16:26:20.794Z,19.24
2023-05-05T16:28:48.058Z,19.15
2023-05-05T16:31:14.806Z,19.06
2023-05-05T16:33:43.137Z,18.97
2023-05-05T16:36:11.699Z,18.87
2023-05-05T16:38:39.437Z,18.78
2023-05-05T16:41:06.524Z,18.68
2023-05-05T16:43:36.327Z,18.57
2023-05-05T16:46:03.537Z,18.44
2023-05-05T16:48:33.086Z,18.31
2023-05-05T16:50:59.854Z,18.18
2023-05-05T16:53:26.618Z,18.04
2023-05-05T16:55:54.043Z,17.89
2023-05-05T16:58:24.621Z,17.74
2023-05-05T17:00:51.936Z,17.57
2023-05-05T17:03:19.786Z,17.40
2023-05-05T17:05:49.146Z,17.24
2023-05-05T17:08:16.830Z,17.08
2023-05-05T17:10:44.923Z,16.93
2023-05-05T17:13:13.362Z,16.78
2023-05-05T17:15:40.289Z,16.61
2023-05-05T17:18:08.030Z,16.45
2023-05-05T17:20:35.824Z,16.29
2023-05-05T17:23:02.816Z,16.14
2023-05-05T17:25:29.563Z,15.97
2023-05-05T17:27:56.932Z,15.81
2023-05-05T17:30:32.648Z,15.62
2023-05-05T17:32:59.433Z,15.42
2023-05-05T17:35:26.254Z,15.25
2023-05-05T17:37:53.150Z,15.07
2023-05-05T17:40:20.098Z,14.90
2023-05-05T17:42:46.983Z,14.73
2023-05-05T17:45:13.736Z,14.57
2023-05-05T17:47:40.383Z,14.40
2023-05-05T17:50:09.697Z,14.25
2023-05-05T17:52:36.814Z,14.09
2023-05-05T17:55:03.840Z,13.92
2023-05-05T17:57:30.814Z,13.76
2023-05-05T17:59:57.607Z,13.60
2023-05-05T18:02:24.600Z,13.44
2023-05-05T18:04:51.472Z,13.28
2023-05-05T18:07:18.171Z,13.12
2023-05-05T18:09:44.784Z,12.98
2023-05-05T18:12:11.497Z,12.85
2023-05-05T18:14:38.173Z,12.71
2023-05-05T18:17:04.939Z,12.58
2023-05-05T18:19:31.807Z,12.46
2023-05-05T18:21:58.496Z,12.34
2023-05-05T18:24:25.620Z,12.23
2023-05-05T18:26:52.869Z,12.12
2023-05-05T18:29:21.220Z,12.02
2023-05-05T18:31:51.002Z,11.93
2023-05-05T18:34:18.808Z,11.83
2023-05-05T18:36:46.761Z,11.73
2023-05-05T18:39:13.904Z,11.65
2023-05-05T18:41:40.582Z,11.56
2023-05-05T18:44:07.386Z,11.48
2023-05-05T18:46:34.277Z,11.40
2023-05-05T18:49:01.304Z,11.33
2023-05-05T18:51:28.235Z,11.26
2023-05-05T18:53:55.004Z,11.19
2023-05-05T18:56:21.717Z,11.11
2023-05-05T18:58:48.859Z,11.05
2023-05-05T19:01:15.654Z,10.98
2023-05-05T19:03:45.849Z,10.91
2023-05-05T19:06:13.064Z,10.83
2023-05-05T19:08:39.910Z,10.75
2023-05-05T19:11:08.862Z,10.68
2023-05-05T19:16:10.513Z,10.53
2023-05-05T19:18:37.287Z,10.46
2023-05-05T19:21:06.763Z,10.39
2023-05-05T19:23:35.470Z,10.32
2023-05-05T19:26:05.347Z,10.25
2023-05-05T19:28:32.775Z,10.18
2023-05-05T19:30:59.563Z,10.12
2023-05-05T19:33:26.398Z,10.07
2023-05-05T19:35:53.100Z,10.02
2023-05-05T19:38:19.686Z,9.97
2023-05-05T19:40:46.599Z,9.93
2023-05-05T19:43:15.689Z,9.88
2023-05-05T19:45:42.440Z,9.85
2023-05-05T19:48:09.235Z,9.81
2023-05-05T19:50:36.224Z,9.78
2023-05-05T19:53:04.202Z,9.74
2023-05-05T19:55:32.507Z,9.71
2023-05-05T19:57:59.172Z,9.69
2023-05-05T20:00:29.225Z,9.65
2023-05-05T20:02:55.923Z,9.62
2023-05-05T20:05:22.684Z,9.58
2023-05-05T20:07:50.367Z,9.57
2023-05-05T20:10:17.415Z,9.54
2023-05-05T20:12:47.145Z,9.51
2023-05-05T20:15:19.908Z,9.48
2023-05-05T20:17:47.751Z,9.44
2023-05-05T20:20:16.979Z,9.41
2023-05-05T20:22:44.837Z,9.37
2023-05-05T20:25:12.087Z,9.34
2023-05-05T20:27:38.939Z,9.31
2023-05-05T20:30:07.189Z,9.28
2023-05-05T20:32:34.194Z,9.25
2023-05-05T20:35:05.431Z,9.22
2023-05-05T20:37:32.149Z,9.18
2023-05-05T20:39:58.772Z,9.13
2023-05-05T20:42:26.954Z,9.09
2023-05-05T20:44:53.563Z,9.05
2023-05-05T20:47:20.552Z,9.01
2023-05-05T20:49:47.461Z,8.96
2023-05-05T20:52:14.170Z,8.91
2023-05-05T20:54:40.865Z,8.85
2023-05-05T20:57:07.496Z,8.81
2023-05-05T20:59:34.238Z,8.76
2023-05-05T21:02:01.241Z,8.71
2023-05-05T21:04:28.437Z,8.67
2023-05-05T21:06:56.714Z,8.62
2023-05-05T21:09:23.643Z,8.59
2023-05-05T21:11:50.322Z,8.55
2023-05-05T21:14:17.042Z,8.50
2023-05-05T21:16:43.752Z,8.46
2023-05-05T21:19:10.626Z,8.41
2023-05-05T21:21:37.568Z,8.37
2023-05-05T21:24:06.966Z,8.33
2023-05-05T21:26:36.678Z,8.29
2023-05-05T21:29:04.142Z,8.27
2023-05-05T21:31:30.978Z,8.24
2023-05-05T21:33:57.800Z,8.20
2023-05-05T21:36:24.401Z,8.17
2023-05-05T21:38:54.620Z,8.15
2023-05-05T21:41:22.565Z,8.12
2023-05-05T21:43:49.328Z,8.11
2023-05-05T21:46:17.521Z,8.09
2023-05-05T21:48:46.569Z,8.06
2023-05-05T21:51:13.511Z,8.04
2023-05-05T21:53:40.284Z,8.01
2023-05-05T21:56:10.189Z,7.99
2023-05-05T21:58:36.995Z,7.96
2023-05-05T22:01:03.752Z,7.92
2023-05-05T22:03:30.625Z,7.89
2023-05-05T22:05:57.431Z,7.85
2023-05-05T22:08:24.370Z,7.82
2023-05-05T22:10:51.738Z,7.78
2023-05-05T22:13:18.601Z,7.76
2023-05-05T22:15:47.518Z,7.73
2023-05-05T22:18:15.505Z,7.68
2023-05-05T22:20:42.774Z,7.64
2023-05-05T22:23:09.434Z,7.60
2023-05-05T22:25:36.244Z,7.56
2023-05-05T22:28:03.519Z,7.52
2023-05-05T22:30:30.479Z,7.49
2023-05-05T22:32:57.274Z,7.46
2023-05-05T22:35:23.954Z,7.43
2023-05-05T22:37:51.105Z,7.39
2023-05-05T22:40:17.852Z,7.36
2023-05-05T22:42:44.712Z,7.33
2023-05-05T22:45:12.377Z,7.29
2023-05-05T22:47:39.432Z,7.26
2023-05-05T22:50:09.530Z,7.24
2023-05-05T22:52:36.566Z,7.20
2023-05-05T22:55:07.182Z,7.16
2023-05-05T22:57:35.636Z,7.13
2023-05-05T23:00:04.583Z,7.09
2023-05-05T23:02:31.830Z,7.06
2023-05-05T23:04:58.698Z,7.04
2023-05-05T23:07:25.488Z,7.01
2023-05-05T23:09:52.555Z,6.98
2023-05-05T23:12:19.331Z,6.97
2023-05-05T23:14:46.157Z,6.94
2023-05-05T23:17:12.966Z,6.91
2023-05-05T23:19:39.852Z,6.88
2023-05-05T23:22:06.427Z,6.85
2023-05-05T23:24:34.647Z,6.83
2023-05-05T23:27:01.491Z,6.81
2023-05-05T23:29:28.852Z,6.78
2023-05-05T23:31:56.254Z,6.76
2023-05-05T23:34:23.176Z,6.74
2023-05-05T23:36:49.996Z,6.71
2023-05-05T23:39:16.784Z,6.70
2023-05-05T23:41:43.471Z,6.68
2023-05-05T23:44:10.154Z,6.66
2023-05-05T23:46:36.829Z,6.63
2023-05-05T23:49:03.592Z,6.60
2023-05-05T23:51:30.392Z,6.57
2023-05-05T23:53:57.177Z,6.56
2023-05-05T23:56:24.250Z,6.53
2023-05-05T23:58:53.704Z,6.51
